Hauptseite
METAR-TAF:

METAR-TAF

Flughäfen :

Flughafen Baldonnel

Dublin, Irland

Breite: 53-18-06N, Länge: 6-27-04W, Höhe: 97 m

Beobachtung

Neuester Wetterbericht von vor 42 Minuten, um 12:30 UTC
Wind 2 kt aus unterschiedlichen Richtungen
Temperatur 20°C
Luftfeuchtigkeit 53%
Luftdruck 1036 hPa
Sichtweite 10 km oder mehr
Aufgelockert bewölkt in der Höhe von 3900 ft
Aufgelockert bewölkt in der Höhe von 4500 ft

METAR: EIME 271230Z VRB02KT 9999 SCT039 SCT045 20/10 Q1036

Zeit: 14:12 (13:12 UTC)

Prognose

Neuester Wetterbericht von vor 2 Stunden und 12 Minuten, um 11:00 UTC
Gültige Prognose vom 27 um 12 UTC bis 27 um 21 UTC
Wind 3 kt aus unterschiedlichen Richtungen
Sichtweite 10 km oder mehr
Leicht bewölkt in der Höhe von 3500 ft

TAF: EIME 271100Z 2712/2721 VRB03KT 9999 FEW035

Wetterbeobachtungen und Prognosen von mehr als 4000 Flughäfen (METAR und TAF Bericht).

Die verfügbaren Stationen werden durch gelbe und rote Markierungen auf der Karte dargestellt.

Führen Sie die Maus auf sie, um den Namen der Station zu sehen.

Darauf klicken, um die Beobachtung von Wetterbeobachtungen und Prognosen zu sehen.

Um die Karte zu ändern : klicken Sie auf den grünen Tasten mit einem schwarzen Kreuz Zum Vergrößern, auf den grünen Button mit einem Gedankenstrich zu verkleinern, oder auf die grünen Pfeile für benachbarte Karten.


METAR-TAF: